Weather at Albany International Airport

Public forecast

Using degrees Fahrenheit for public forecast. Weather courtesy of forecast.io.

Current aviation weather report (METAR) for Albany International Airport

2022/11/29 09:51 (retrieved 44 minutes ago)

KALB 290951Z 33003KT 10SM OVC031 01/M03 A3021 RMK AO2 SLP231 T00061033

Aviation forecast (TAF) for Albany International Airport

2022/11/29 10:10 Ammendment (retrieved 25 minutes ago)

TAF AMD KALB 291008Z 2910/3006 33004KT P6SM BKN035 TEMPO 2910/2914 SCT035 FM291400 VRB03KT P6SM SCT040 FM291700 15005KT P6SM SCT250 FM300000 14006KT P6SM BKN250